sensor_id;sensor_type;location;lat;lon;timestamp;P1;durP1;ratioP1;P2;durP2;ratioP2
42364;SDS011;28498;54.400;18.566;2023-03-04T00:02:26;23.05;;;9.52;;
42364;SDS011;28498;54.400;18.566;2023-03-04T00:04:53;17.42;;;7.80;;
42364;SDS011;28498;54.400;18.566;2023-03-04T00:07:20;20.95;;;8.63;;
42364;SDS011;28498;54.400;18.566;2023-03-04T00:09:47;19.17;;;8.90;;
42364;SDS011;28498;54.400;18.566;2023-03-04T00:12:14;19.10;;;8.77;;
42364;SDS011;28498;54.400;18.566;2023-03-04T00:14:41;20.73;;;8.43;;
42364;SDS011;28498;54.400;18.566;2023-03-04T00:17:08;16.20;;;7.70;;
42364;SDS011;28498;54.400;18.566;2023-03-04T00:19:35;13.35;;;6.70;;
42364;SDS011;28498;54.400;18.566;2023-03-04T00:22:02;17.10;;;7.95;;
42364;SDS011;28498;54.400;18.566;2023-03-04T00:24:30;17.90;;;7.50;;
42364;SDS011;28498;54.400;18.566;2023-03-04T00:26:57;13.80;;;7.22;;
42364;SDS011;28498;54.400;18.566;2023-03-04T00:29:24;15.48;;;7.82;;
42364;SDS011;28498;54.400;18.566;2023-03-04T00:31:52;16.88;;;7.38;;
42364;SDS011;28498;54.400;18.566;2023-03-04T00:34:19;17.10;;;7.53;;
42364;SDS011;28498;54.400;18.566;2023-03-04T00:36:46;13.65;;;7.32;;
42364;SDS011;28498;54.400;18.566;2023-03-04T00:39:14;11.32;;;7.00;;
42364;SDS011;28498;54.400;18.566;2023-03-04T00:41:41;16.30;;;7.25;;
42364;SDS011;28498;54.400;18.566;2023-03-04T00:44:08;17.00;;;6.53;;
42364;SDS011;28498;54.400;18.566;2023-03-04T00:46:35;14.38;;;6.35;;
42364;SDS011;28498;54.400;18.566;2023-03-04T00:49:02;14.60;;;6.93;;
42364;SDS011;28498;54.400;18.566;2023-03-04T00:51:29;18.75;;;7.18;;
42364;SDS011;28498;54.400;18.566;2023-03-04T00:53:56;15.48;;;6.88;;
42364;SDS011;28498;54.400;18.566;2023-03-04T00:56:26;18.48;;;7.35;;
42364;SDS011;28498;54.400;18.566;2023-03-04T00:58:53;20.67;;;7.32;;
42364;SDS011;28498;54.400;18.566;2023-03-04T01:01:20;15.02;;;6.45;;
42364;SDS011;28498;54.400;18.566;2023-03-04T01:03:47;19.38;;;6.07;;
42364;SDS011;28498;54.400;18.566;2023-03-04T01:06:14;17.15;;;6.53;;
42364;SDS011;28498;54.400;18.566;2023-03-04T01:08:41;16.85;;;6.25;;
42364;SDS011;28498;54.400;18.566;2023-03-04T01:11:08;18.90;;;6.28;;
42364;SDS011;28498;54.400;18.566;2023-03-04T01:13:35;19.23;;;6.07;;
42364;SDS011;28498;54.400;18.566;2023-03-04T01:16:02;16.58;;;6.75;;
42364;SDS011;28498;54.400;18.566;2023-03-04T01:18:30;13.98;;;5.93;;
42364;SDS011;28498;54.400;18.566;2023-03-04T01:20:57;16.65;;;6.75;;
42364;SDS011;28498;54.400;18.566;2023-03-04T01:23:25;14.93;;;6.22;;
42364;SDS011;28498;54.400;18.566;2023-03-04T01:25:52;15.93;;;5.28;;
42364;SDS011;28498;54.400;18.566;2023-03-04T01:28:19;14.20;;;6.32;;
42364;SDS011;28498;54.400;18.566;2023-03-04T01:30:46;17.67;;;6.10;;
42364;SDS011;28498;54.400;18.566;2023-03-04T01:33:13;12.00;;;5.32;;
42364;SDS011;28498;54.400;18.566;2023-03-04T01:35:40;15.70;;;6.35;;
42364;SDS011;28498;54.400;18.566;2023-03-04T01:38:07;11.57;;;5.07;;
42364;SDS011;28498;54.400;18.566;2023-03-04T01:40:34;14.50;;;5.15;;
42364;SDS011;28498;54.400;18.566;2023-03-04T01:43:03;15.95;;;6.43;;
42364;SDS011;28498;54.400;18.566;2023-03-04T01:45:30;16.40;;;5.07;;
42364;SDS011;28498;54.400;18.566;2023-03-04T01:47:58;13.57;;;5.30;;
42364;SDS011;28498;54.400;18.566;2023-03-04T01:52:57;12.82;;;5.20;;
42364;SDS011;28498;54.400;18.566;2023-03-04T01:55:29;15.57;;;7.60;;
42364;SDS011;28498;54.400;18.566;2023-03-04T01:57:56;12.27;;;6.05;;
42364;SDS011;28498;54.400;18.566;2023-03-04T02:02:54;12.35;;;4.22;;
42364;SDS011;28498;54.400;18.566;2023-03-04T02:05:46;11.63;;;4.53;;
42364;SDS011;28498;54.400;18.566;2023-03-04T02:08:15;10.57;;;4.90;;
42364;SDS011;28498;54.400;18.566;2023-03-04T02:10:45;11.75;;;4.13;;
42364;SDS011;28498;54.400;18.566;2023-03-04T02:13:13;14.95;;;6.40;;
42364;SDS011;28498;54.400;18.566;2023-03-04T02:15:41;11.63;;;4.90;;
42364;SDS011;28498;54.400;18.566;2023-03-04T02:18:18;11.05;;;4.50;;
42364;SDS011;28498;54.400;18.566;2023-03-04T02:23:32;15.00;;;4.97;;
42364;SDS011;28498;54.400;18.566;2023-03-04T02:26:13;12.75;;;3.78;;
42364;SDS011;28498;54.400;18.566;2023-03-04T02:28:47;8.18;;;3.30;;
42364;SDS011;28498;54.400;18.566;2023-03-04T02:31:37;15.57;;;4.30;;
42364;SDS011;28498;54.400;18.566;2023-03-04T02:34:05;15.27;;;5.90;;
42364;SDS011;28498;54.400;18.566;2023-03-04T02:36:37;16.27;;;4.35;;
42364;SDS011;28498;54.400;18.566;2023-03-04T02:42:19;10.23;;;4.07;;
42364;SDS011;28498;54.400;18.566;2023-03-04T02:44:46;17.00;;;5.10;;
42364;SDS011;28498;54.400;18.566;2023-03-04T02:47:16;12.30;;;3.88;;
42364;SDS011;28498;54.400;18.566;2023-03-04T02:49:44;11.82;;;3.67;;
42364;SDS011;28498;54.400;18.566;2023-03-04T02:52:12;10.30;;;3.70;;
42364;SDS011;28498;54.400;18.566;2023-03-04T02:54:43;12.55;;;4.28;;
42364;SDS011;28498;54.400;18.566;2023-03-04T02:57:11;11.80;;;3.50;;
42364;SDS011;28498;54.400;18.566;2023-03-04T02:59:39;12.45;;;3.63;;
42364;SDS011;28498;54.400;18.566;2023-03-04T03:02:07;10.75;;;4.88;;
42364;SDS011;28498;54.400;18.566;2023-03-04T03:04:35;11.23;;;4.10;;
42364;SDS011;28498;54.400;18.566;2023-03-04T03:07:04;15.80;;;3.80;;
42364;SDS011;28498;54.400;18.566;2023-03-04T03:09:31;9.45;;;4.18;;
42364;SDS011;28498;54.400;18.566;2023-03-04T03:11:58;14.13;;;4.38;;
42364;SDS011;28498;54.400;18.566;2023-03-04T03:14:25;11.82;;;4.82;;
42364;SDS011;28498;54.400;18.566;2023-03-04T03:16:52;14.75;;;3.70;;
42364;SDS011;28498;54.400;18.566;2023-03-04T03:19:19;13.50;;;3.38;;
42364;SDS011;28498;54.400;18.566;2023-03-04T03:21:46;9.68;;;3.40;;
42364;SDS011;28498;54.400;18.566;2023-03-04T03:24:13;10.30;;;4.03;;
42364;SDS011;28498;54.400;18.566;2023-03-04T03:26:40;10.68;;;3.25;;
42364;SDS011;28498;54.400;18.566;2023-03-04T03:29:07;11.30;;;4.05;;
42364;SDS011;28498;54.400;18.566;2023-03-04T03:31:34;14.60;;;3.50;;
42364;SDS011;28498;54.400;18.566;2023-03-04T03:34:01;9.23;;;3.22;;
42364;SDS011;28498;54.400;18.566;2023-03-04T03:36:28;11.10;;;3.50;;
42364;SDS011;28498;54.400;18.566;2023-03-04T03:38:55;10.23;;;3.45;;
42364;SDS011;28498;54.400;18.566;2023-03-04T03:41:22;11.85;;;3.90;;
42364;SDS011;28498;54.400;18.566;2023-03-04T03:43:49;12.82;;;4.32;;
42364;SDS011;28498;54.400;18.566;2023-03-04T03:46:16;10.30;;;4.30;;
42364;SDS011;28498;54.400;18.566;2023-03-04T03:48:43;13.50;;;3.58;;
42364;SDS011;28498;54.400;18.566;2023-03-04T03:51:10;12.23;;;4.10;;
42364;SDS011;28498;54.400;18.566;2023-03-04T03:53:36;12.55;;;4.10;;
42364;SDS011;28498;54.400;18.566;2023-03-04T03:56:03;12.57;;;4.07;;
42364;SDS011;28498;54.400;18.566;2023-03-04T03:58:31;12.07;;;4.38;;
42364;SDS011;28498;54.400;18.566;2023-03-04T04:00:58;13.27;;;3.90;;
42364;SDS011;28498;54.400;18.566;2023-03-04T04:03:25;12.35;;;3.45;;
42364;SDS011;28498;54.400;18.566;2023-03-04T04:05:52;7.90;;;2.85;;
42364;SDS011;28498;54.400;18.566;2023-03-04T04:08:19;10.57;;;3.28;;
42364;SDS011;28498;54.400;18.566;2023-03-04T04:10:46;11.40;;;3.35;;
42364;SDS011;28498;54.400;18.566;2023-03-04T04:13:13;11.57;;;3.22;;
42364;SDS011;28498;54.400;18.566;2023-03-04T04:15:40;6.97;;;2.50;;
42364;SDS011;28498;54.400;18.566;2023-03-04T04:18:07;10.65;;;3.17;;
42364;SDS011;28498;54.400;18.566;2023-03-04T04:20:34;12.43;;;3.78;;
42364;SDS011;28498;54.400;18.566;2023-03-04T04:23:01;9.32;;;2.60;;
42364;SDS011;28498;54.400;18.566;2023-03-04T04:25:29;8.90;;;2.75;;
42364;SDS011;28498;54.400;18.566;2023-03-04T04:27:56;15.05;;;3.90;;
42364;SDS011;28498;54.400;18.566;2023-03-04T04:30:23;6.57;;;3.08;;
42364;SDS011;28498;54.400;18.566;2023-03-04T04:32:50;11.65;;;3.85;;
42364;SDS011;28498;54.400;18.566;2023-03-04T04:35:17;11.20;;;3.95;;
42364;SDS011;28498;54.400;18.566;2023-03-04T04:37:44;9.13;;;3.38;;
42364;SDS011;28498;54.400;18.566;2023-03-04T04:40:11;8.60;;;3.55;;
42364;SDS011;28498;54.400;18.566;2023-03-04T04:42:38;11.43;;;3.28;;
42364;SDS011;28498;54.400;18.566;2023-03-04T04:45:05;8.98;;;3.63;;
42364;SDS011;28498;54.400;18.566;2023-03-04T04:47:33;10.35;;;3.92;;
42364;SDS011;28498;54.400;18.566;2023-03-04T04:50:00;13.00;;;3.90;;
42364;SDS011;28498;54.400;18.566;2023-03-04T04:52:27;8.95;;;3.80;;
42364;SDS011;28498;54.400;18.566;2023-03-04T04:54:54;11.18;;;3.75;;
42364;SDS011;28498;54.400;18.566;2023-03-04T04:57:21;25.27;;;4.90;;
42364;SDS011;28498;54.400;18.566;2023-03-04T04:59:48;13.60;;;3.65;;
42364;SDS011;28498;54.400;18.566;2023-03-04T05:02:15;9.30;;;3.25;;
42364;SDS011;28498;54.400;18.566;2023-03-04T05:04:42;13.85;;;3.72;;
42364;SDS011;28498;54.400;18.566;2023-03-04T05:07:09;9.00;;;2.45;;
42364;SDS011;28498;54.400;18.566;2023-03-04T05:09:36;14.10;;;3.72;;
42364;SDS011;28498;54.400;18.566;2023-03-04T05:12:03;8.43;;;3.05;;
42364;SDS011;28498;54.400;18.566;2023-03-04T05:14:30;10.02;;;3.80;;
42364;SDS011;28498;54.400;18.566;2023-03-04T05:16:57;9.13;;;2.70;;
42364;SDS011;28498;54.400;18.566;2023-03-04T05:19:24;9.88;;;2.78;;
42364;SDS011;28498;54.400;18.566;2023-03-04T05:21:51;10.75;;;3.47;;
42364;SDS011;28498;54.400;18.566;2023-03-04T05:24:18;9.10;;;3.00;;
42364;SDS011;28498;54.400;18.566;2023-03-04T05:26:45;9.98;;;3.08;;
42364;SDS011;28498;54.400;18.566;2023-03-04T05:29:12;13.30;;;2.80;;
42364;SDS011;28498;54.400;18.566;2023-03-04T05:31:39;14.55;;;3.47;;
42364;SDS011;28498;54.400;18.566;2023-03-04T05:34:06;9.05;;;3.55;;
42364;SDS011;28498;54.400;18.566;2023-03-04T05:36:33;9.60;;;3.25;;
42364;SDS011;28498;54.400;18.566;2023-03-04T05:39:00;13.55;;;2.85;;
42364;SDS011;28498;54.400;18.566;2023-03-04T05:41:27;16.92;;;3.28;;
42364;SDS011;28498;54.400;18.566;2023-03-04T05:43:54;9.68;;;2.83;;
42364;SDS011;28498;54.400;18.566;2023-03-04T05:46:22;8.02;;;2.95;;
42364;SDS011;28498;54.400;18.566;2023-03-04T05:48:51;9.63;;;2.92;;
42364;SDS011;28498;54.400;18.566;2023-03-04T05:51:19;14.27;;;2.83;;
42364;SDS011;28498;54.400;18.566;2023-03-04T05:53:47;6.93;;;2.72;;
42364;SDS011;28498;54.400;18.566;2023-03-04T05:56:16;8.15;;;3.63;;
42364;SDS011;28498;54.400;18.566;2023-03-04T05:58:44;11.60;;;2.60;;
42364;SDS011;28498;54.400;18.566;2023-03-04T06:01:14;13.30;;;4.25;;
42364;SDS011;28498;54.400;18.566;2023-03-04T06:03:42;8.20;;;3.60;;
42364;SDS011;28498;54.400;18.566;2023-03-04T06:06:09;8.65;;;3.78;;
42364;SDS011;28498;54.400;18.566;2023-03-04T06:08:36;5.32;;;2.45;;
42364;SDS011;28498;54.400;18.566;2023-03-04T06:11:03;7.60;;;2.55;;
42364;SDS011;28498;54.400;18.566;2023-03-04T06:13:31;10.55;;;2.97;;
42364;SDS011;28498;54.400;18.566;2023-03-04T06:15:59;7.78;;;3.15;;
42364;SDS011;28498;54.400;18.566;2023-03-04T06:18:27;8.05;;;2.22;;
42364;SDS011;28498;54.400;18.566;2023-03-04T06:20:58;6.60;;;2.33;;
42364;SDS011;28498;54.400;18.566;2023-03-04T06:23:27;7.63;;;2.50;;
42364;SDS011;28498;54.400;18.566;2023-03-04T06:25:55;6.00;;;2.95;;
42364;SDS011;28498;54.400;18.566;2023-03-04T06:28:23;8.77;;;2.92;;
42364;SDS011;28498;54.400;18.566;2023-03-04T06:30:51;11.88;;;3.08;;
42364;SDS011;28498;54.400;18.566;2023-03-04T06:33:18;11.57;;;2.60;;
42364;SDS011;28498;54.400;18.566;2023-03-04T06:35:45;8.18;;;2.22;;
42364;SDS011;28498;54.400;18.566;2023-03-04T06:38:13;6.45;;;2.50;;
42364;SDS011;28498;54.400;18.566;2023-03-04T06:40:40;12.93;;;3.20;;
42364;SDS011;28498;54.400;18.566;2023-03-04T06:43:07;6.35;;;2.42;;
42364;SDS011;28498;54.400;18.566;2023-03-04T06:45:34;6.13;;;2.10;;
42364;SDS011;28498;54.400;18.566;2023-03-04T06:48:00;7.35;;;2.20;;
42364;SDS011;28498;54.400;18.566;2023-03-04T06:50:27;7.30;;;2.10;;
42364;SDS011;28498;54.400;18.566;2023-03-04T06:52:55;9.55;;;2.70;;
42364;SDS011;28498;54.400;18.566;2023-03-04T06:55:22;8.52;;;2.42;;
42364;SDS011;28498;54.400;18.566;2023-03-04T06:57:50;7.28;;;2.50;;
42364;SDS011;28498;54.400;18.566;2023-03-04T07:00:17;6.50;;;2.10;;
42364;SDS011;28498;54.400;18.566;2023-03-04T07:02:44;5.68;;;2.08;;
42364;SDS011;28498;54.400;18.566;2023-03-04T07:05:11;6.85;;;2.25;;
42364;SDS011;28498;54.400;18.566;2023-03-04T07:07:38;7.40;;;2.78;;
42364;SDS011;28498;54.400;18.566;2023-03-04T07:10:05;5.60;;;2.40;;
42364;SDS011;28498;54.400;18.566;2023-03-04T07:12:33;4.40;;;1.70;;
42364;SDS011;28498;54.400;18.566;2023-03-04T07:15:00;9.13;;;2.20;;
42364;SDS011;28498;54.400;18.566;2023-03-04T07:17:27;4.18;;;1.90;;
42364;SDS011;28498;54.400;18.566;2023-03-04T07:19:54;7.13;;;2.50;;
42364;SDS011;28498;54.400;18.566;2023-03-04T07:22:21;6.05;;;2.10;;
42364;SDS011;28498;54.400;18.566;2023-03-04T07:24:48;7.38;;;1.98;;
42364;SDS011;28498;54.400;18.566;2023-03-04T07:27:15;6.05;;;2.17;;
42364;SDS011;28498;54.400;18.566;2023-03-04T07:29:42;7.45;;;2.13;;
42364;SDS011;28498;54.400;18.566;2023-03-04T07:32:09;4.88;;;1.70;;
42364;SDS011;28498;54.400;18.566;2023-03-04T07:34:36;9.30;;;2.40;;
42364;SDS011;28498;54.400;18.566;2023-03-04T07:37:03;3.95;;;1.58;;
42364;SDS011;28498;54.400;18.566;2023-03-04T07:39:30;7.68;;;1.80;;
42364;SDS011;28498;54.400;18.566;2023-03-04T07:41:57;5.25;;;1.70;;
42364;SDS011;28498;54.400;18.566;2023-03-04T07:44:24;6.88;;;2.58;;
42364;SDS011;28498;54.400;18.566;2023-03-04T07:46:51;5.28;;;1.88;;
42364;SDS011;28498;54.400;18.566;2023-03-04T07:49:18;4.78;;;1.67;;
42364;SDS011;28498;54.400;18.566;2023-03-04T07:51:45;4.35;;;1.35;;
42364;SDS011;28498;54.400;18.566;2023-03-04T07:54:12;4.95;;;1.45;;
42364;SDS011;28498;54.400;18.566;2023-03-04T07:56:39;2.00;;;0.80;;
42364;SDS011;28498;54.400;18.566;2023-03-04T07:59:06;1.75;;;0.80;;
42364;SDS011;28498;54.400;18.566;2023-03-04T08:01:34;2.08;;;0.80;;
42364;SDS011;28498;54.400;18.566;2023-03-04T08:04:03;2.50;;;1.27;;
42364;SDS011;28498;54.400;18.566;2023-03-04T08:06:31;2.88;;;0.75;;
42364;SDS011;28498;54.400;18.566;2023-03-04T08:09:00;2.30;;;0.75;;
42364;SDS011;28498;54.400;18.566;2023-03-04T08:11:31;1.92;;;0.70;;
42364;SDS011;28498;54.400;18.566;2023-03-04T08:14:00;2.72;;;0.85;;
42364;SDS011;28498;54.400;18.566;2023-03-04T08:16:27;6.03;;;0.88;;
42364;SDS011;28498;54.400;18.566;2023-03-04T08:18:55;2.90;;;0.93;;
42364;SDS011;28498;54.400;18.566;2023-03-04T08:21:25;1.90;;;0.80;;
42364;SDS011;28498;54.400;18.566;2023-03-04T08:23:53;3.17;;;0.85;;
42364;SDS011;28498;54.400;18.566;2023-03-04T08:26:24;2.95;;;0.85;;
42364;SDS011;28498;54.400;18.566;2023-03-04T08:28:55;2.40;;;0.70;;
42364;SDS011;28498;54.400;18.566;2023-03-04T08:31:23;2.42;;;0.73;;
42364;SDS011;28498;54.400;18.566;2023-03-04T08:33:50;4.47;;;1.25;;
42364;SDS011;28498;54.400;18.566;2023-03-04T08:36:18;3.13;;;0.90;;
42364;SDS011;28498;54.400;18.566;2023-03-04T08:38:45;2.53;;;0.70;;
42364;SDS011;28498;54.400;18.566;2023-03-04T08:41:13;2.40;;;0.80;;
42364;SDS011;28498;54.400;18.566;2023-03-04T08:43:40;2.63;;;1.15;;
42364;SDS011;28498;54.400;18.566;2023-03-04T08:46:08;1.33;;;0.90;;
42364;SDS011;28498;54.400;18.566;2023-03-04T08:48:35;6.53;;;1.02;;
42364;SDS011;28498;54.400;18.566;2023-03-04T08:51:10;3.67;;;0.73;;
42364;SDS011;28498;54.400;18.566;2023-03-04T08:53:39;2.95;;;0.98;;
42364;SDS011;28498;54.400;18.566;2023-03-04T08:56:07;4.65;;;0.70;;
42364;SDS011;28498;54.400;18.566;2023-03-04T08:58:34;1.65;;;0.60;;
42364;SDS011;28498;54.400;18.566;2023-03-04T09:01:02;3.72;;;1.00;;
42364;SDS011;28498;54.400;18.566;2023-03-04T09:03:30;2.53;;;0.70;;
42364;SDS011;28498;54.400;18.566;2023-03-04T09:05:57;3.13;;;1.00;;
42364;SDS011;28498;54.400;18.566;2023-03-04T09:08:26;1.90;;;0.80;;
42364;SDS011;28498;54.400;18.566;2023-03-04T09:10:54;2.20;;;0.80;;
42364;SDS011;28498;54.400;18.566;2023-03-04T09:13:21;3.30;;;1.40;;
42364;SDS011;28498;54.400;18.566;2023-03-04T09:15:51;4.60;;;1.00;;
42364;SDS011;28498;54.400;18.566;2023-03-04T09:18:20;5.45;;;1.90;;
42364;SDS011;28498;54.400;18.566;2023-03-04T09:20:48;3.05;;;1.17;;
42364;SDS011;28498;54.400;18.566;2023-03-04T09:23:16;2.13;;;0.93;;
42364;SDS011;28498;54.400;18.566;2023-03-04T09:25:43;3.10;;;1.23;;
42364;SDS011;28498;54.400;18.566;2023-03-04T09:28:13;2.30;;;0.98;;
42364;SDS011;28498;54.400;18.566;2023-03-04T09:30:40;1.38;;;0.68;;
42364;SDS011;28498;54.400;18.566;2023-03-04T09:33:08;1.88;;;0.80;;
42364;SDS011;28498;54.400;18.566;2023-03-04T09:35:35;1.13;;;0.55;;
42364;SDS011;28498;54.400;18.566;2023-03-04T09:38:03;2.42;;;1.00;;
42364;SDS011;28498;54.400;18.566;2023-03-04T09:40:43;2.08;;;0.88;;
42364;SDS011;28498;54.400;18.566;2023-03-04T09:43:21;2.20;;;0.88;;
42364;SDS011;28498;54.400;18.566;2023-03-04T09:45:56;1.77;;;0.70;;
42364;SDS011;28498;54.400;18.566;2023-03-04T09:48:27;2.45;;;0.80;;
42364;SDS011;28498;54.400;18.566;2023-03-04T09:53:38;2.10;;;0.85;;
42364;SDS011;28498;54.400;18.566;2023-03-04T09:56:14;2.85;;;1.00;;
42364;SDS011;28498;54.400;18.566;2023-03-04T09:59:02;3.63;;;1.20;;
42364;SDS011;28498;54.400;18.566;2023-03-04T10:06:51;2.85;;;0.88;;
42364;SDS011;28498;54.400;18.566;2023-03-04T10:09:27;2.70;;;0.82;;
42364;SDS011;28498;54.400;18.566;2023-03-04T10:12:03;2.17;;;0.57;;
42364;SDS011;28498;54.400;18.566;2023-03-04T10:17:28;2.65;;;1.10;;
42364;SDS011;28498;54.400;18.566;2023-03-04T10:20:26;1.88;;;0.70;;
42364;SDS011;28498;54.400;18.566;2023-03-04T10:23:10;2.08;;;0.80;;
42364;SDS011;28498;54.400;18.566;2023-03-04T10:25:42;2.17;;;0.80;;
42364;SDS011;28498;54.400;18.566;2023-03-04T10:31:44;1.75;;;0.60;;
42364;SDS011;28498;54.400;18.566;2023-03-04T10:33:48;1.45;;;0.70;;
42364;SDS011;28498;54.400;18.566;2023-03-04T10:41:30;4.72;;;1.13;;
42364;SDS011;28498;54.400;18.566;2023-03-04T10:44:02;2.13;;;0.88;;
42364;SDS011;28498;54.400;18.566;2023-03-04T10:46:40;2.60;;;0.90;;
42364;SDS011;28498;54.400;18.566;2023-03-04T10:49:12;1.05;;;0.57;;
42364;SDS011;28498;54.400;18.566;2023-03-04T10:51:42;1.60;;;0.68;;
42364;SDS011;28498;54.400;18.566;2023-03-04T10:54:27;8.40;;;1.35;;
42364;SDS011;28498;54.400;18.566;2023-03-04T10:57:16;2.78;;;1.10;;
42364;SDS011;28498;54.400;18.566;2023-03-04T11:02:41;3.65;;;0.90;;
42364;SDS011;28498;54.400;18.566;2023-03-04T11:07:52;1.38;;;0.60;;
42364;SDS011;28498;54.400;18.566;2023-03-04T11:10:59;4.72;;;0.70;;
42364;SDS011;28498;54.400;18.566;2023-03-04T11:13:19;2.47;;;1.00;;
42364;SDS011;28498;54.400;18.566;2023-03-04T11:21:11;4.25;;;0.70;;
42364;SDS011;28498;54.400;18.566;2023-03-04T11:32:50;3.15;;;1.38;;
42364;SDS011;28498;54.400;18.566;2023-03-04T11:35:29;5.45;;;1.05;;
42364;SDS011;28498;54.400;18.566;2023-03-04T11:38:08;1.45;;;0.70;;
42364;SDS011;28498;54.400;18.566;2023-03-04T11:40:43;4.70;;;0.98;;
42364;SDS011;28498;54.400;18.566;2023-03-04T11:43:24;2.17;;;0.70;;
42364;SDS011;28498;54.400;18.566;2023-03-04T11:54:34;5.60;;;1.30;;
42364;SDS011;28498;54.400;18.566;2023-03-04T11:57:12;3.08;;;0.98;;
42364;SDS011;28498;54.400;18.566;2023-03-04T12:02:21;4.03;;;0.90;;
42364;SDS011;28498;54.400;18.566;2023-03-04T12:08:07;2.50;;;0.80;;
42364;SDS011;28498;54.400;18.566;2023-03-04T12:11:09;4.05;;;0.80;;
42364;SDS011;28498;54.400;18.566;2023-03-04T12:13:50;3.80;;;1.05;;
42364;SDS011;28498;54.400;18.566;2023-03-04T12:16:58;4.00;;;0.90;;
42364;SDS011;28498;54.400;18.566;2023-03-04T12:23:23;3.35;;;1.33;;
42364;SDS011;28498;54.400;18.566;2023-03-04T12:36:10;3.15;;;1.23;;
42364;SDS011;28498;54.400;18.566;2023-03-04T12:38:58;2.90;;;0.80;;
42364;SDS011;28498;54.400;18.566;2023-03-04T12:42:01;5.35;;;1.20;;
42364;SDS011;28498;54.400;18.566;2023-03-04T12:44:47;2.38;;;0.77;;
42364;SDS011;28498;54.400;18.566;2023-03-04T12:53:04;2.28;;;1.17;;
42364;SDS011;28498;54.400;18.566;2023-03-04T12:55:43;1.92;;;0.85;;
42364;SDS011;28498;54.400;18.566;2023-03-04T12:58:16;3.03;;;1.02;;
42364;SDS011;28498;54.400;18.566;2023-03-04T13:00:51;2.92;;;1.40;;
42364;SDS011;28498;54.400;18.566;2023-03-04T13:11:44;8.03;;;1.90;;
42364;SDS011;28498;54.400;18.566;2023-03-04T13:16:47;4.13;;;1.50;;
42364;SDS011;28498;54.400;18.566;2023-03-04T13:35:49;6.75;;;2.28;;
42364;SDS011;28498;54.400;18.566;2023-03-04T13:43:45;2.65;;;1.23;;
42364;SDS011;28498;54.400;18.566;2023-03-04T13:49:07;1.60;;;0.60;;
42364;SDS011;28498;54.400;18.566;2023-03-04T13:51:42;3.40;;;1.00;;
42364;SDS011;28498;54.400;18.566;2023-03-04T13:57:22;1.92;;;0.82;;
42364;SDS011;28498;54.400;18.566;2023-03-04T13:59:54;4.95;;;1.80;;
42364;SDS011;28498;54.400;18.566;2023-03-04T14:02:23;7.38;;;2.03;;
42364;SDS011;28498;54.400;18.566;2023-03-04T14:04:58;8.00;;;1.75;;
42364;SDS011;28498;54.400;18.566;2023-03-04T14:10:02;3.17;;;1.20;;
42364;SDS011;28498;54.400;18.566;2023-03-04T14:12:34;7.40;;;1.80;;
42364;SDS011;28498;54.400;18.566;2023-03-04T14:15:04;8.40;;;2.50;;
42364;SDS011;28498;54.400;18.566;2023-03-04T14:17:45;5.43;;;1.40;;
42364;SDS011;28498;54.400;18.566;2023-03-04T14:22:54;5.03;;;2.47;;
42364;SDS011;28498;54.400;18.566;2023-03-04T14:25:23;6.93;;;3.25;;
42364;SDS011;28498;54.400;18.566;2023-03-04T14:28:04;5.43;;;2.03;;
42364;SDS011;28498;54.400;18.566;2023-03-04T14:30:40;4.78;;;0.90;;
42364;SDS011;28498;54.400;18.566;2023-03-04T14:36:12;4.38;;;1.50;;
42364;SDS011;28498;54.400;18.566;2023-03-04T14:38:43;2.22;;;0.80;;
42364;SDS011;28498;54.400;18.566;2023-03-04T14:41:24;1.92;;;0.93;;
42364;SDS011;28498;54.400;18.566;2023-03-04T14:44:02;2.03;;;0.88;;
42364;SDS011;28498;54.400;18.566;2023-03-04T14:46:40;2.58;;;0.73;;
42364;SDS011;28498;54.400;18.566;2023-03-04T14:49:29;6.15;;;2.17;;
42364;SDS011;28498;54.400;18.566;2023-03-04T14:51:58;3.80;;;1.02;;
42364;SDS011;28498;54.400;18.566;2023-03-04T14:57:00;29.05;;;8.40;;
42364;SDS011;28498;54.400;18.566;2023-03-04T14:59:47;6.38;;;1.80;;
42364;SDS011;28498;54.400;18.566;2023-03-04T15:02:15;4.10;;;1.77;;
42364;SDS011;28498;54.400;18.566;2023-03-04T15:04:46;3.38;;;1.13;;
42364;SDS011;28498;54.400;18.566;2023-03-04T15:07:15;5.50;;;1.58;;
42364;SDS011;28498;54.400;18.566;2023-03-04T15:09:49;2.55;;;1.05;;
42364;SDS011;28498;54.400;18.566;2023-03-04T15:12:21;3.30;;;1.50;;
42364;SDS011;28498;54.400;18.566;2023-03-04T15:14:55;3.55;;;1.85;;
42364;SDS011;28498;54.400;18.566;2023-03-04T15:20:11;4.18;;;1.70;;
42364;SDS011;28498;54.400;18.566;2023-03-04T15:25:14;3.00;;;0.90;;
42364;SDS011;28498;54.400;18.566;2023-03-04T15:27:46;3.05;;;1.40;;
42364;SDS011;28498;54.400;18.566;2023-03-04T15:32:50;8.35;;;1.15;;
42364;SDS011;28498;54.400;18.566;2023-03-04T15:35:17;2.05;;;0.93;;
42364;SDS011;28498;54.400;18.566;2023-03-04T15:37:45;4.50;;;1.40;;
42364;SDS011;28498;54.400;18.566;2023-03-04T15:40:25;1.67;;;0.70;;
42364;SDS011;28498;54.400;18.566;2023-03-04T15:43:18;3.75;;;1.30;;
42364;SDS011;28498;54.400;18.566;2023-03-04T15:45:48;3.72;;;1.23;;
42364;SDS011;28498;54.400;18.566;2023-03-04T15:48:16;2.13;;;1.00;;
42364;SDS011;28498;54.400;18.566;2023-03-04T15:50:46;5.15;;;1.30;;
42364;SDS011;28498;54.400;18.566;2023-03-04T15:53:18;4.55;;;1.27;;
42364;SDS011;28498;54.400;18.566;2023-03-04T15:55:53;2.08;;;0.90;;
42364;SDS011;28498;54.400;18.566;2023-03-04T15:58:20;2.63;;;1.00;;
42364;SDS011;28498;54.400;18.566;2023-03-04T16:00:47;2.83;;;1.23;;
42364;SDS011;28498;54.400;18.566;2023-03-04T16:03:14;3.13;;;1.30;;
42364;SDS011;28498;54.400;18.566;2023-03-04T16:05:43;3.30;;;1.10;;
42364;SDS011;28498;54.400;18.566;2023-03-04T16:08:13;4.40;;;1.13;;
42364;SDS011;28498;54.400;18.566;2023-03-04T16:10:43;5.13;;;1.48;;
42364;SDS011;28498;54.400;18.566;2023-03-04T16:13:15;4.20;;;1.75;;
42364;SDS011;28498;54.400;18.566;2023-03-04T16:15:45;3.20;;;1.13;;
42364;SDS011;28498;54.400;18.566;2023-03-04T16:18:12;3.33;;;1.48;;
42364;SDS011;28498;54.400;18.566;2023-03-04T16:20:42;5.15;;;1.88;;
42364;SDS011;28498;54.400;18.566;2023-03-04T16:23:12;3.42;;;1.40;;
42364;SDS011;28498;54.400;18.566;2023-03-04T16:25:51;3.97;;;1.27;;
42364;SDS011;28498;54.400;18.566;2023-03-04T16:28:21;3.65;;;1.60;;
42364;SDS011;28498;54.400;18.566;2023-03-04T16:30:48;4.53;;;2.00;;
42364;SDS011;28498;54.400;18.566;2023-03-04T16:33:15;4.05;;;1.85;;
42364;SDS011;28498;54.400;18.566;2023-03-04T16:35:42;4.22;;;1.65;;
42364;SDS011;28498;54.400;18.566;2023-03-04T16:38:21;3.35;;;1.27;;
42364;SDS011;28498;54.400;18.566;2023-03-04T16:40:51;5.03;;;1.30;;
42364;SDS011;28498;54.400;18.566;2023-03-04T16:43:19;5.78;;;1.55;;
42364;SDS011;28498;54.400;18.566;2023-03-04T16:45:47;3.78;;;1.70;;
42364;SDS011;28498;54.400;18.566;2023-03-04T16:48:14;6.72;;;2.05;;
42364;SDS011;28498;54.400;18.566;2023-03-04T16:50:42;4.90;;;2.38;;
42364;SDS011;28498;54.400;18.566;2023-03-04T16:53:32;7.38;;;1.83;;
42364;SDS011;28498;54.400;18.566;2023-03-04T16:56:00;3.88;;;1.55;;
42364;SDS011;28498;54.400;18.566;2023-03-04T16:58:31;3.53;;;1.50;;
42364;SDS011;28498;54.400;18.566;2023-03-04T17:00:59;4.32;;;1.67;;
42364;SDS011;28498;54.400;18.566;2023-03-04T17:03:26;4.55;;;2.00;;
42364;SDS011;28498;54.400;18.566;2023-03-04T17:05:53;3.67;;;1.98;;
42364;SDS011;28498;54.400;18.566;2023-03-04T17:08:20;4.60;;;2.30;;
42364;SDS011;28498;54.400;18.566;2023-03-04T17:10:47;5.15;;;1.73;;